createdAt,value
2023-02-24T00:00:38.309Z,67.40
2023-02-24T00:03:10.956Z,67.40
2023-02-24T00:05:44.537Z,67.30
2023-02-24T00:08:14.029Z,67.40
2023-02-24T00:10:43.021Z,67.40
2023-02-24T00:13:12.260Z,67.50
2023-02-24T00:15:40.446Z,67.50
2023-02-24T00:18:09.196Z,67.50
2023-02-24T00:20:37.321Z,67.50
2023-02-24T00:23:05.368Z,67.60
2023-02-24T00:25:34.781Z,67.60
2023-02-24T00:28:02.809Z,67.60
2023-02-24T00:30:32.970Z,67.60
2023-02-24T00:33:02.885Z,67.50
2023-02-24T00:35:31.024Z,67.50
2023-02-24T00:37:59.452Z,67.50
2023-02-24T00:40:30.234Z,67.60
2023-02-24T00:42:59.831Z,67.60
2023-02-24T00:45:30.861Z,67.60
2023-02-24T00:47:59.239Z,67.60
2023-02-24T00:50:27.471Z,67.60
2023-02-24T00:52:55.506Z,67.60
2023-02-24T00:55:23.575Z,67.70
2023-02-24T00:57:51.903Z,67.70
2023-02-24T01:00:23.420Z,67.70
2023-02-24T01:02:52.319Z,67.60
2023-02-24T01:05:21.178Z,67.60
2023-02-24T01:07:49.223Z,67.60
2023-02-24T01:10:18.302Z,67.50
2023-02-24T01:12:53.853Z,67.60
2023-02-24T01:15:24.245Z,67.60
2023-02-24T01:17:52.329Z,68.20
2023-02-24T01:20:20.548Z,67.60
2023-02-24T01:22:50.667Z,67.60
2023-02-24T01:25:20.318Z,67.60
2023-02-24T01:27:48.584Z,67.60
2023-02-24T01:30:18.373Z,67.60
2023-02-24T01:32:48.574Z,67.60
2023-02-24T01:35:17.926Z,67.70
2023-02-24T01:37:46.335Z,67.70
2023-02-24T01:40:21.223Z,67.70
2023-02-24T01:42:50.416Z,67.80
2023-02-24T01:45:22.758Z,67.70
2023-02-24T01:47:53.336Z,67.70
2023-02-24T01:50:26.085Z,67.80
2023-02-24T01:52:58.210Z,67.80
2023-02-24T01:55:32.063Z,67.90
2023-02-24T01:58:05.911Z,67.90
2023-02-24T02:00:38.336Z,67.90
2023-02-24T02:03:19.525Z,67.90
2023-02-24T02:05:48.632Z,68.00
2023-02-24T02:08:18.950Z,67.90
2023-02-24T02:10:47.417Z,67.90
2023-02-24T02:13:21.519Z,67.90
2023-02-24T02:16:02.885Z,67.90
2023-02-24T02:18:42.922Z,68.00
2023-02-24T02:21:58.532Z,68.00
2023-02-24T02:24:42.782Z,68.00
2023-02-24T02:27:39.701Z,68.00
2023-02-24T02:30:32.672Z,68.00
2023-02-24T02:33:44.171Z,67.90
2023-02-24T02:36:16.924Z,67.90
2023-02-24T02:38:54.309Z,67.80
2023-02-24T02:41:28.476Z,67.90
2023-02-24T02:44:07.433Z,68.00
2023-02-24T02:46:42.581Z,68.00
2023-02-24T02:49:20.174Z,67.80
2023-02-24T02:51:52.776Z,68.00
2023-02-24T02:54:28.304Z,67.80
2023-02-24T02:57:02.993Z,67.90
2023-02-24T02:59:35.343Z,67.80
2023-02-24T03:02:14.960Z,67.90
2023-02-24T03:04:51.219Z,67.90
2023-02-24T03:07:22.517Z,67.90
2023-02-24T03:09:56.005Z,68.00
2023-02-24T03:12:26.314Z,68.00
2023-02-24T03:14:59.433Z,68.00
2023-02-24T03:17:31.722Z,68.00
2023-02-24T03:20:15.496Z,68.00
2023-02-24T03:22:49.901Z,68.00
2023-02-24T03:25:19.502Z,68.10
2023-02-24T03:27:52.105Z,68.70
2023-02-24T03:30:23.786Z,68.10
2023-02-24T03:32:57.519Z,68.10
2023-02-24T03:35:28.635Z,68.10
2023-02-24T03:37:57.898Z,68.10
2023-02-24T03:40:29.588Z,68.20
2023-02-24T03:43:05.256Z,68.20
2023-02-24T03:45:37.945Z,68.00
2023-02-24T03:48:07.097Z,68.00
2023-02-24T03:50:38.060Z,68.70
2023-02-24T03:53:22.338Z,68.10
2023-02-24T03:56:00.642Z,68.10
2023-02-24T03:58:38.585Z,68.00
2023-02-24T04:01:14.453Z,68.00
2023-02-24T04:03:53.403Z,68.10
2023-02-24T04:06:34.204Z,68.10
2023-02-24T04:09:10.333Z,68.20
2023-02-24T04:11:46.002Z,68.10
2023-02-24T04:14:20.351Z,68.10
2023-02-24T04:16:57.076Z,68.20
2023-02-24T04:19:29.172Z,68.20
2023-02-24T04:21:58.921Z,68.20
2023-02-24T04:24:33.442Z,68.20
2023-02-24T04:27:06.416Z,68.20
2023-02-24T04:29:40.379Z,68.20
2023-02-24T04:32:11.765Z,68.30
2023-02-24T04:34:40.569Z,68.20
2023-02-24T04:37:10.340Z,68.30
2023-02-24T04:39:38.933Z,68.30
2023-02-24T04:42:07.479Z,68.30
2023-02-24T04:44:36.120Z,68.30
2023-02-24T04:47:04.845Z,68.30
2023-02-24T04:49:33.999Z,68.30
2023-02-24T04:52:02.089Z,68.40
2023-02-24T04:54:31.500Z,68.40
2023-02-24T04:56:59.599Z,68.40
2023-02-24T04:59:29.179Z,68.40
2023-02-24T05:02:01.415Z,68.40
2023-02-24T05:04:31.882Z,68.40
2023-02-24T05:07:00.548Z,68.50
2023-02-24T05:09:30.168Z,68.50
2023-02-24T05:12:00.395Z,68.50
2023-02-24T05:14:28.757Z,68.50
2023-02-24T05:17:00.382Z,68.40
2023-02-24T05:19:46.374Z,68.50
2023-02-24T05:22:16.968Z,68.50
2023-02-24T05:24:47.929Z,68.50
2023-02-24T05:27:17.607Z,68.40
2023-02-24T05:29:45.916Z,68.40
2023-02-24T05:32:16.313Z,68.40
2023-02-24T05:34:44.628Z,68.50
2023-02-24T05:37:12.660Z,68.50
2023-02-24T05:39:41.008Z,68.50
2023-02-24T05:42:09.405Z,68.50
2023-02-24T05:44:38.819Z,68.50
2023-02-24T05:47:06.964Z,68.50
2023-02-24T05:49:38.801Z,68.50
2023-02-24T05:52:09.929Z,68.50
2023-02-24T05:54:40.062Z,68.60
2023-02-24T05:57:11.623Z,68.60
2023-02-24T05:59:42.054Z,68.60
2023-02-24T06:02:12.518Z,68.60
2023-02-24T06:04:46.701Z,68.60
2023-02-24T06:07:19.267Z,68.60
2023-02-24T06:09:50.044Z,68.70
2023-02-24T06:12:19.769Z,68.70
2023-02-24T06:14:49.512Z,68.70
2023-02-24T06:17:18.698Z,68.70
2023-02-24T06:19:48.022Z,68.70
2023-02-24T06:22:19.173Z,68.70
2023-02-24T06:24:49.264Z,68.70
2023-02-24T06:27:19.342Z,68.70
2023-02-24T06:29:51.042Z,68.70
2023-02-24T06:32:20.259Z,68.80
2023-02-24T06:34:48.325Z,68.70
2023-02-24T06:37:18.275Z,68.70
2023-02-24T06:39:46.681Z,68.70
2023-02-24T06:42:14.821Z,68.60
2023-02-24T06:44:43.266Z,68.60
2023-02-24T06:47:16.279Z,68.70
2023-02-24T06:49:44.424Z,68.70
2023-02-24T06:52:18.540Z,68.70
2023-02-24T06:54:49.360Z,68.70
2023-02-24T06:57:17.741Z,68.70
2023-02-24T06:59:46.368Z,68.70
2023-02-24T07:02:17.623Z,68.70
2023-02-24T07:04:45.871Z,68.80
2023-02-24T07:07:17.323Z,68.80
2023-02-24T07:09:45.668Z,68.90
2023-02-24T07:12:15.606Z,68.70
2023-02-24T07:14:44.072Z,69.50
2023-02-24T07:17:14.694Z,68.70
2023-02-24T07:19:44.312Z,68.70
2023-02-24T07:22:15.211Z,68.70
2023-02-24T07:24:46.347Z,68.60
2023-02-24T07:27:22.984Z,68.50
2023-02-24T07:29:53.727Z,68.50
2023-02-24T07:32:23.391Z,68.50
2023-02-24T07:34:53.101Z,68.40
2023-02-24T07:37:23.195Z,67.40
2023-02-24T07:39:51.805Z,67.20
2023-02-24T07:42:19.871Z,67.30
2023-02-24T07:44:49.216Z,67.20
2023-02-24T07:47:17.406Z,67.30
2023-02-24T07:49:45.842Z,67.20
2023-02-24T07:52:16.112Z,67.30
2023-02-24T07:54:44.282Z,67.20
2023-02-24T07:57:14.171Z,67.20
2023-02-24T07:59:47.034Z,67.30
2023-02-24T08:02:15.880Z,67.10
2023-02-24T08:04:50.097Z,67.10
2023-02-24T08:07:24.803Z,67.10
2023-02-24T08:10:14.242Z,67.10
2023-02-24T08:12:47.554Z,67.10
2023-02-24T08:15:23.619Z,67.10
2023-02-24T08:17:53.201Z,67.20
2023-02-24T08:20:29.792Z,67.10
2023-02-24T08:22:59.367Z,67.10
2023-02-24T08:25:35.614Z,66.90
2023-02-24T08:28:09.494Z,66.80
2023-02-24T08:30:40.648Z,66.90
2023-02-24T08:33:11.833Z,66.70
2023-02-24T08:35:44.591Z,66.60
2023-02-24T08:38:17.315Z,66.40
2023-02-24T08:40:57.972Z,66.20
2023-02-24T08:43:34.136Z,66.20
2023-02-24T08:46:12.551Z,66.10
2023-02-24T08:48:43.961Z,66.80
2023-02-24T08:51:17.729Z,66.00
2023-02-24T08:53:47.754Z,65.70
2023-02-24T08:56:24.227Z,65.60
2023-02-24T08:58:57.070Z,65.50
2023-02-24T09:01:34.355Z,65.30
2023-02-24T09:04:04.780Z,65.30
2023-02-24T09:06:39.286Z,65.30
2023-02-24T09:09:18.399Z,65.30
2023-02-24T09:11:48.012Z,65.20
2023-02-24T09:14:26.987Z,65.10
2023-02-24T09:17:03.189Z,64.90
2023-02-24T09:20:02.030Z,64.90
2023-02-24T09:22:31.717Z,64.80
2023-02-24T09:25:23.447Z,64.70
2023-02-24T09:31:45.575Z,64.70
2023-02-24T09:34:28.451Z,64.40
2023-02-24T09:37:33.818Z,64.30
2023-02-24T09:40:49.747Z,64.40
2023-02-24T09:43:37.077Z,64.40
2023-02-24T09:47:15.039Z,64.40
2023-02-24T09:53:51.569Z,64.10
2023-02-24T09:56:59.097Z,64.00
2023-02-24T09:59:59.014Z,63.70
2023-02-24T10:06:19.042Z,63.10
2023-02-24T10:09:16.533Z,62.90
2023-02-24T10:11:54.561Z,62.70
2023-02-24T10:14:37.932Z,62.50
2023-02-24T10:17:25.986Z,62.10
2023-02-24T10:20:00.503Z,61.60
2023-02-24T10:22:50.603Z,61.10
2023-02-24T10:25:36.255Z,60.80
2023-02-24T10:28:16.899Z,60.60
2023-02-24T10:31:01.629Z,60.60
2023-02-24T10:33:38.800Z,60.50
2023-02-24T10:36:09.446Z,60.00
2023-02-24T10:38:40.810Z,59.70
2023-02-24T10:41:11.098Z,59.30
2023-02-24T10:43:46.400Z,58.80
2023-02-24T10:46:40.091Z,58.70
2023-02-24T10:49:16.671Z,58.20
2023-02-24T10:51:52.309Z,58.30
2023-02-24T10:54:34.424Z,58.00
2023-02-24T10:57:15.736Z,57.70
2023-02-24T10:59:58.651Z,57.40
2023-02-24T11:02:32.873Z,57.30
2023-02-24T11:05:26.947Z,57.10
2023-02-24T11:08:15.737Z,56.70
2023-02-24T11:11:30.514Z,56.30
2023-02-24T11:14:18.079Z,56.10
2023-02-24T11:17:13.498Z,56.30
2023-02-24T11:19:46.394Z,56.00
2023-02-24T11:22:17.623Z,56.00
2023-02-24T11:24:46.848Z,55.70
2023-02-24T11:27:18.699Z,55.50
2023-02-24T11:30:02.511Z,55.20
2023-02-24T11:32:48.360Z,54.80
2023-02-24T11:35:22.372Z,54.80
2023-02-24T11:38:02.477Z,55.10
2023-02-24T11:40:35.225Z,54.80
2023-02-24T11:43:08.424Z,54.60
2023-02-24T11:45:40.788Z,54.30
2023-02-24T11:48:17.128Z,54.20
2023-02-24T11:50:50.333Z,54.10
2023-02-24T11:53:32.833Z,54.10
2023-02-24T11:56:04.379Z,54.20
2023-02-24T11:58:41.897Z,54.40
2023-02-24T12:01:16.072Z,54.50
2023-02-24T12:03:53.794Z,54.60
2023-02-24T12:06:28.672Z,54.60
2023-02-24T12:09:01.778Z,54.60
2023-02-24T12:11:38.740Z,54.80
2023-02-24T12:14:20.067Z,54.80
2023-02-24T12:16:53.326Z,55.00
2023-02-24T12:19:31.260Z,54.90
2023-02-24T12:22:05.946Z,54.50
2023-02-24T12:24:37.285Z,54.30
2023-02-24T12:27:15.306Z,54.10
2023-02-24T12:32:31.682Z,52.90
2023-02-24T12:35:10.873Z,52.60
2023-02-24T12:37:56.029Z,51.70
2023-02-24T12:40:36.818Z,51.30
2023-02-24T12:43:15.003Z,51.00
2023-02-24T12:45:52.219Z,50.70
2023-02-24T12:48:47.322Z,50.80
2023-02-24T12:51:23.022Z,50.50
2023-02-24T12:59:02.359Z,48.90
2023-02-24T13:01:35.078Z,48.90
2023-02-24T13:04:22.665Z,48.40
2023-02-24T13:07:04.807Z,47.50
2023-02-24T13:09:41.839Z,47.20
2023-02-24T13:12:16.793Z,47.00
2023-02-24T13:14:45.954Z,46.70
2023-02-24T13:17:23.087Z,46.50
2023-02-24T13:19:53.267Z,46.10
2023-02-24T13:22:29.395Z,46.40
2023-02-24T13:25:05.630Z,45.90
2023-02-24T13:27:36.291Z,45.80
2023-02-24T13:30:22.137Z,45.80
2023-02-24T13:33:02.274Z,45.80
2023-02-24T13:35:33.070Z,46.00
2023-02-24T13:38:23.838Z,46.30
2023-02-24T13:40:52.340Z,46.30
2023-02-24T13:43:27.013Z,46.70
2023-02-24T13:46:01.834Z,46.60
2023-02-24T13:48:46.417Z,46.70
2023-02-24T13:51:39.494Z,46.60
2023-02-24T13:54:27.433Z,46.60
2023-02-24T13:56:58.159Z,46.70
2023-02-24T13:59:47.171Z,46.90
2023-02-24T14:02:17.048Z,46.90
2023-02-24T14:04:51.329Z,47.00
2023-02-24T14:07:23.569Z,47.00
2023-02-24T14:09:57.798Z,47.20
2023-02-24T14:12:29.662Z,47.20
2023-02-24T14:14:58.248Z,47.20
2023-02-24T14:17:28.756Z,47.40
2023-02-24T14:20:08.976Z,47.60
2023-02-24T14:22:43.743Z,47.70
2023-02-24T14:25:14.042Z,47.70
2023-02-24T14:27:44.783Z,47.80
2023-02-24T14:30:27.550Z,48.00
2023-02-24T14:32:56.096Z,48.10
2023-02-24T14:35:35.938Z,48.20
2023-02-24T14:38:05.067Z,48.40
2023-02-24T14:40:35.195Z,48.50
2023-02-24T14:43:04.151Z,48.50
2023-02-24T14:45:32.224Z,48.60
2023-02-24T14:48:00.289Z,48.60
2023-02-24T14:50:31.256Z,48.70
2023-02-24T14:53:03.547Z,48.80
2023-02-24T14:55:37.065Z,48.80
2023-02-24T14:58:12.806Z,49.00
2023-02-24T15:00:43.911Z,49.30
2023-02-24T15:03:16.308Z,49.50
2023-02-24T15:05:46.799Z,49.50
2023-02-24T15:08:26.634Z,49.60
2023-02-24T15:10:56.702Z,49.70
2023-02-24T15:13:36.622Z,49.80
2023-02-24T15:16:12.534Z,50.00
2023-02-24T15:18:40.995Z,50.10
2023-02-24T15:21:19.376Z,50.20
2023-02-24T15:23:48.750Z,50.20
2023-02-24T15:26:33.073Z,50.30
2023-02-24T15:29:03.021Z,50.40
2023-02-24T15:31:31.721Z,50.50
2023-02-24T15:34:03.685Z,50.60
2023-02-24T15:36:34.876Z,50.70
2023-02-24T15:39:06.586Z,50.80
2023-02-24T15:41:43.978Z,50.90
2023-02-24T15:44:27.319Z,50.90
2023-02-24T15:46:55.941Z,51.10
2023-02-24T15:49:24.081Z,51.20
2023-02-24T15:51:54.297Z,51.20
2023-02-24T15:54:29.274Z,51.40
2023-02-24T15:57:00.519Z,51.50
2023-02-24T15:59:30.339Z,51.60
2023-02-24T16:01:58.553Z,51.70
2023-02-24T16:04:27.836Z,51.80
2023-02-24T16:06:58.637Z,51.90
2023-02-24T16:09:33.404Z,52.00
2023-02-24T16:12:04.263Z,52.10
2023-02-24T16:14:33.480Z,52.20
2023-02-24T16:17:06.916Z,52.40
2023-02-24T16:19:34.986Z,52.40
2023-02-24T16:22:03.034Z,52.50
2023-02-24T16:24:31.081Z,52.70
2023-02-24T16:26:59.179Z,52.70
2023-02-24T16:29:28.677Z,52.80
2023-02-24T16:31:56.946Z,53.00
2023-02-24T16:34:25.182Z,53.00
2023-02-24T16:36:53.194Z,53.10
2023-02-24T16:39:21.226Z,53.20
2023-02-24T16:41:49.279Z,53.10
2023-02-24T16:44:17.305Z,53.10
2023-02-24T16:49:21.069Z,52.50
2023-02-24T16:51:49.137Z,53.00
2023-02-24T16:54:17.171Z,53.00
2023-02-24T16:56:45.296Z,53.00
2023-02-24T16:59:13.334Z,53.00
2023-02-24T17:01:41.494Z,53.10
2023-02-24T17:04:11.529Z,53.20
2023-02-24T17:06:39.574Z,53.30
2023-02-24T17:09:07.897Z,53.30
2023-02-24T17:11:35.947Z,53.40
2023-02-24T17:14:04.502Z,53.50
2023-02-24T17:16:32.741Z,53.50
2023-02-24T17:19:00.801Z,53.60
2023-02-24T17:21:30.265Z,53.70
2023-02-24T17:23:58.562Z,53.80
2023-02-24T17:26:26.776Z,53.80
2023-02-24T17:28:55.560Z,53.90
2023-02-24T17:31:24.102Z,54.00
2023-02-24T17:33:52.168Z,54.00
2023-02-24T17:36:20.454Z,54.10
2023-02-24T17:38:49.986Z,54.10
2023-02-24T17:41:18.022Z,54.20
2023-02-24T17:43:46.065Z,54.20
2023-02-24T17:46:14.141Z,54.90
2023-02-24T17:48:42.216Z,54.30
2023-02-24T17:51:14.395Z,54.40
2023-02-24T17:53:42.445Z,54.40
2023-02-24T17:56:12.474Z,54.50
2023-02-24T17:58:40.993Z,54.60
2023-02-24T18:01:09.357Z,54.60
2023-02-24T18:03:37.801Z,54.70
2023-02-24T18:06:08.465Z,54.80
2023-02-24T18:08:37.422Z,54.80
2023-02-24T18:11:07.342Z,54.90
2023-02-24T18:13:37.073Z,54.90
2023-02-24T18:16:10.181Z,55.00
2023-02-24T18:18:38.954Z,55.10
2023-02-24T18:21:08.529Z,55.10
2023-02-24T18:23:40.340Z,55.20
2023-02-24T18:26:10.307Z,55.30
2023-02-24T18:28:40.870Z,55.30
2023-02-24T18:31:14.637Z,55.40
2023-02-24T18:33:42.930Z,55.50
2023-02-24T18:36:11.801Z,55.50
2023-02-24T18:38:39.830Z,55.60
2023-02-24T18:41:09.890Z,55.60
2023-02-24T18:43:39.317Z,55.60
2023-02-24T18:46:09.381Z,55.70
2023-02-24T18:48:37.816Z,55.80
2023-02-24T18:51:06.121Z,55.80
2023-02-24T18:53:36.901Z,55.90
2023-02-24T18:56:06.713Z,55.90
2023-02-24T18:58:37.437Z,56.00
2023-02-24T19:01:14.082Z,56.00
2023-02-24T19:03:43.515Z,56.20
2023-02-24T19:06:12.478Z,56.20
2023-02-24T19:08:41.373Z,56.30
2023-02-24T19:11:10.890Z,56.30
2023-02-24T19:13:39.311Z,56.40
2023-02-24T19:16:08.663Z,56.40
2023-02-24T19:18:38.335Z,56.50
2023-02-24T19:21:07.177Z,56.50
2023-02-24T19:23:35.399Z,56.50
2023-02-24T19:26:03.470Z,56.60
2023-02-24T19:28:31.970Z,56.70
2023-02-24T19:31:00.105Z,56.70
2023-02-24T19:33:28.249Z,56.80
2023-02-24T19:36:00.702Z,56.80
2023-02-24T19:38:28.778Z,56.90
2023-02-24T19:40:59.191Z,56.90
2023-02-24T19:43:27.597Z,56.90
2023-02-24T19:45:55.860Z,57.00
2023-02-24T19:48:23.953Z,57.00
2023-02-24T19:50:52.011Z,57.10
2023-02-24T19:53:21.437Z,57.10
2023-02-24T19:55:50.578Z,57.20
2023-02-24T19:58:18.773Z,57.20
2023-02-24T20:00:48.044Z,57.30
2023-02-24T20:03:16.384Z,57.30
2023-02-24T20:05:44.463Z,57.30
2023-02-24T20:08:12.570Z,57.40
2023-02-24T20:10:42.038Z,57.50
2023-02-24T20:13:10.580Z,57.50
2023-02-24T20:15:38.630Z,58.10
2023-02-24T20:18:08.788Z,57.60
2023-02-24T20:20:37.280Z,57.60
2023-02-24T20:23:05.757Z,57.70
2023-02-24T20:25:33.804Z,57.70
2023-02-24T20:28:03.956Z,57.80
2023-02-24T20:30:31.985Z,57.90
2023-02-24T20:33:00.077Z,57.90
2023-02-24T20:35:28.482Z,58.00
2023-02-24T20:37:56.546Z,58.00
2023-02-24T20:40:24.567Z,58.10
2023-02-24T20:42:52.604Z,58.10
2023-02-24T20:45:21.997Z,58.20
2023-02-24T20:47:50.038Z,58.30
2023-02-24T20:50:18.248Z,58.30
2023-02-24T20:52:46.354Z,58.40
2023-02-24T20:55:14.390Z,58.40
2023-02-24T20:57:42.464Z,58.50
2023-02-24T21:00:12.253Z,58.70
2023-02-24T21:02:41.895Z,58.70
2023-02-24T21:05:11.085Z,58.80
2023-02-24T21:07:39.663Z,58.80
2023-02-24T21:10:08.317Z,58.90
2023-02-24T21:12:36.443Z,58.90
2023-02-24T21:15:04.872Z,58.90
2023-02-24T21:17:34.253Z,59.00
2023-02-24T21:20:03.710Z,59.00
2023-02-24T21:22:31.983Z,59.10
2023-02-24T21:25:00.297Z,59.10
2023-02-24T21:27:28.378Z,59.10
2023-02-24T21:29:56.402Z,59.10
2023-02-24T21:32:24.465Z,59.20
2023-02-24T21:34:52.515Z,59.20
2023-02-24T21:37:21.950Z,59.20
2023-02-24T21:39:50.256Z,59.30
2023-02-24T21:42:18.292Z,59.30
2023-02-24T21:44:46.314Z,59.40
2023-02-24T21:47:14.356Z,59.40
2023-02-24T21:49:42.425Z,59.40
2023-02-24T21:52:12.196Z,59.50
2023-02-24T21:54:42.308Z,59.40
2023-02-24T21:57:10.467Z,59.40
2023-02-24T21:59:38.517Z,59.50
2023-02-24T22:02:06.599Z,59.40
2023-02-24T22:04:34.809Z,59.50
2023-02-24T22:07:02.820Z,59.40
2023-02-24T22:09:30.856Z,59.40
2023-02-24T22:12:00.325Z,59.50
2023-02-24T22:14:28.381Z,59.50
2023-02-24T22:16:56.403Z,59.50
2023-02-24T22:19:24.477Z,59.60
2023-02-24T22:21:52.581Z,59.70
2023-02-24T22:24:20.919Z,59.70
2023-02-24T22:26:51.092Z,59.80
2023-02-24T22:29:20.908Z,59.80
2023-02-24T22:31:49.856Z,59.80
2023-02-24T22:34:18.227Z,59.80
2023-02-24T22:36:46.285Z,59.90
2023-02-24T22:39:16.731Z,59.90
2023-02-24T22:41:45.587Z,60.00
2023-02-24T22:44:14.378Z,59.90
2023-02-24T22:46:43.806Z,59.90
2023-02-24T22:49:12.378Z,59.90
2023-02-24T22:51:42.217Z,59.90
2023-02-24T22:54:10.340Z,60.00
2023-02-24T22:56:38.626Z,60.00
2023-02-24T22:59:06.687Z,60.10
2023-02-24T23:01:36.674Z,60.10
2023-02-24T23:04:07.545Z,60.10
2023-02-24T23:06:36.622Z,60.20
2023-02-24T23:09:06.080Z,60.30
2023-02-24T23:11:35.939Z,60.30
2023-02-24T23:14:06.934Z,60.40
2023-02-24T23:16:36.793Z,60.50
2023-02-24T23:19:08.458Z,60.50
2023-02-24T23:21:38.894Z,60.40
2023-02-24T23:24:10.832Z,60.50
2023-02-24T23:26:40.754Z,60.50
2023-02-24T23:29:10.484Z,60.60
2023-02-24T23:31:39.615Z,60.70
2023-02-24T23:34:09.868Z,60.80
2023-02-24T23:36:39.923Z,60.80
2023-02-24T23:39:09.952Z,60.80
2023-02-24T23:41:39.171Z,60.80
2023-02-24T23:44:07.463Z,60.90
2023-02-24T23:46:36.432Z,60.90
2023-02-24T23:49:05.362Z,61.00
2023-02-24T23:51:47.710Z,61.00
2023-02-24T23:54:16.888Z,61.00
2023-02-24T23:56:45.233Z,61.00
2023-02-24T23:59:13.297Z,61.10
